Jarinu, Brazil
Current Conditions -  °F | °C
As of 6:00 PM on Friday 19 Dec 2014 (Local Time) from SBKP Reporting Station
Thunderstorm Thunderstorm  
Wind Chill: 86°   Ceiling: Unl
Heat Index: 89°   Visibility: 6mi
Dew Point: 68°   Wind: 6mph
Humidity: 55%   Direction: 160°SSE
Pressure: 29.8"   Gusts: NA
Location:  23.1°S, 46.73°W
Report Text: SBKP 192000Z 16005KT 9999 TS SCT040 FEW046CB 30/20 Q1009
Loading
Personal Weather Stations






























Interactive Weather Map New forecast layout! Learn more

10-Day Weather Forecast

Advertisements
Track Severe Weather on mobile